Time;durP1;ratioP1;P1;durP2;ratioP2;P2;SDS_P1;SDS_P2;PMS_P1;PMS_P2;Temp;Humidity;BMP_temperature;BMP_pressure;BME280_temperature;BME280_humidity;BME280_pressure;Samples;Min_cycle;Max_cycle;Signal;HPM_P1;HPM_P2
2021/09/02 00:02:09;;;;;;;10.30;7.17;;;;;16.00;102297.00;;;;12868831;22;20236;-81
2021/09/02 00:07:11;;;;;;;13.97;6.87;;;;;16.00;102291.00;;;;12893324;22;20586;-80
2021/09/02 00:12:12;;;;;;;11.60;6.43;;;;;16.00;102290.00;;;;12893606;22;20181;-81
2021/09/02 00:17:13;;;;;;;11.17;6.40;;;;;16.00;102282.00;;;;12940233;22;20298;-80
2021/09/02 00:22:14;;;;;;;14.53;7.30;;;;;15.90;102288.00;;;;12893268;22;20251;-81
2021/09/02 00:27:15;;;;;;;12.35;7.05;;;;;15.90;102286.00;;;;12868241;22;20181;-80
2021/09/02 00:32:18;;;;;;;16.83;7.43;;;;;15.90;102283.00;;;;12869169;22;20212;-81
2021/09/02 00:37:19;;;;;;;12.77;7.47;;;;;15.90;102273.00;;;;12892927;22;20204;-81
2021/09/02 00:42:20;;;;;;;14.10;7.30;;;;;15.90;102276.00;;;;12892359;22;20228;-80
2021/09/02 00:47:22;;;;;;;12.50;7.20;;;;;15.90;102277.00;;;;12892957;22;20200;-81
2021/09/02 00:52:29;;;;;;;10.37;6.47;;;;;15.80;102278.00;;;;12868192;22;20180;-81
2021/09/02 00:57:33;;;;;;;13.63;7.40;;;;;15.80;102269.00;;;;12939870;22;20288;-80
2021/09/02 01:02:34;;;;;;;13.98;7.30;;;;;15.80;102260.00;;;;12894580;22;20198;-80
2021/09/02 01:07:36;;;;;;;11.23;7.38;;;;;15.80;102267.00;;;;12896066;22;20177;-80
2021/09/02 01:12:40;;;;;;;15.13;7.27;;;;;15.70;102258.00;;;;12846865;22;20178;-81
2021/09/02 01:17:44;;;;;;;12.93;6.93;;;;;15.70;102261.00;;;;12846423;22;20190;-80
2021/09/02 01:22:50;;;;;;;15.83;7.70;;;;;15.70;102255.00;;;;12895435;22;20202;-80
2021/09/02 01:27:55;;;;;;;12.57;7.27;;;;;15.70;102257.00;;;;12895773;22;20170;-80
2021/09/02 01:32:57;;;;;;;15.23;7.07;;;;;15.70;102260.00;;;;12895835;22;20181;-80
2021/09/02 01:38:04;;;;;;;17.53;8.00;;;;;15.70;102249.00;;;;12870269;22;20220;-80
2021/09/02 01:43:08;;;;;;;12.27;6.17;;;;;15.70;102254.00;;;;12895159;22;20240;-80
2021/09/02 01:48:09;;;;;;;11.77;6.93;;;;;15.70;102254.00;;;;12871629;22;20264;-80
2021/09/02 01:53:14;;;;;;;11.33;7.10;;;;;15.60;102253.00;;;;12872119;22;20177;-80
2021/09/02 01:58:15;;;;;;;12.07;7.13;;;;;15.60;102257.00;;;;12895063;22;20602;-81
2021/09/02 02:03:16;;;;;;;13.00;7.40;;;;;15.60;102254.00;;;;12846707;22;20197;-81
2021/09/02 02:08:18;;;;;;;12.10;6.83;;;;;15.50;102242.00;;;;12871222;22;20793;-81
2021/09/02 02:13:19;;;;;;;12.53;7.60;;;;;15.50;102238.00;;;;12872175;22;20184;-80
2021/09/02 02:18:20;;;;;;;12.43;7.67;;;;;15.50;102234.00;;;;12846152;22;20707;-80
2021/09/02 02:23:21;;;;;;;11.07;7.30;;;;;15.50;102234.00;;;;12894965;22;20196;-81
2021/09/02 02:28:22;;;;;;;11.23;6.80;;;;;15.40;102231.00;;;;12846525;22;20174;-81
2021/09/02 02:33:23;;;;;;;15.67;7.70;;;;;15.40;102221.00;;;;12872153;22;20789;-80
2021/09/02 02:38:25;;;;;;;12.47;7.53;;;;;15.40;102220.00;;;;12920335;22;20173;-80
2021/09/02 02:43:26;;;;;;;11.70;7.47;;;;;15.30;102224.00;;;;12896059;22;20198;-81
2021/09/02 02:48:27;;;;;;;14.23;7.17;;;;;15.30;102217.00;;;;12895889;22;20227;-81
2021/09/02 02:53:28;;;;;;;13.10;6.83;;;;;15.30;102216.00;;;;12895886;22;20264;-80
2021/09/02 02:58:29;;;;;;;15.63;7.67;;;;;15.20;102210.00;;;;12870979;22;20173;-81
2021/09/02 03:03:30;;;;;;;19.50;8.30;;;;;15.20;102208.00;;;;12941122;22;20196;-80
2021/09/02 03:08:31;;;;;;;16.33;7.47;;;;;15.20;102211.00;;;;12894486;22;20187;-80
2021/09/02 03:13:33;;;;;;;13.63;7.57;;;;;15.20;102212.00;;;;12844620;22;20177;-81
2021/09/02 03:18:35;;;;;;;13.13;7.07;;;;;15.10;102207.00;;;;12940376;22;20196;-80
2021/09/02 03:23:36;;;;;;;11.23;7.40;;;;;15.10;102211.00;;;;12845436;22;20201;-81
2021/09/02 03:28:37;;;;;;;11.77;7.27;;;;;15.00;102219.00;;;;12893991;22;20169;-80
2021/09/02 03:33:38;;;;;;;10.33;7.07;;;;;15.00;102206.00;;;;12895197;22;20169;-80
2021/09/02 03:38:39;;;;;;;14.90;6.83;;;;;15.00;102199.00;;;;12894252;22;20197;-80
2021/09/02 03:43:40;;;;;;;10.43;7.23;;;;;15.00;102196.00;;;;12893903;22;20643;-80
2021/09/02 03:48:42;;;;;;;18.17;8.50;;;;;15.00;102194.00;;;;12868263;22;20247;-81
2021/09/02 03:53:43;;;;;;;18.23;8.23;;;;;15.00;102187.00;;;;12894287;22;20181;-81
2021/09/02 03:58:44;;;;;;;14.57;7.97;;;;;14.90;102192.00;;;;12869019;22;20897;-80
2021/09/02 04:03:45;;;;;;;12.90;7.77;;;;;14.90;102186.00;;;;12844282;22;20569;-81
2021/09/02 04:08:46;;;;;;;12.90;7.60;;;;;14.80;102187.00;;;;12893832;22;20174;-80
2021/09/02 04:13:47;;;;;;;14.90;7.70;;;;;14.80;102196.00;;;;12867987;22;20184;-80
2021/09/02 04:18:49;;;;;;;11.60;7.97;;;;;14.70;102193.00;;;;12843741;22;20189;-80
2021/09/02 04:23:50;;;;;;;16.00;7.97;;;;;14.60;102187.00;;;;12868415;22;20177;-80
2021/09/02 04:28:51;;;;;;;16.77;8.43;;;;;14.50;102192.00;;;;12870299;22;20652;-80
2021/09/02 04:33:53;;;;;;;12.63;7.93;;;;;14.50;102178.00;;;;12870233;22;20165;-80
2021/09/02 04:38:55;;;;;;;16.13;8.73;;;;;14.40;102183.00;;;;12843862;22;20173;-78
2021/09/02 04:43:56;;;;;;;16.07;9.27;;;;;14.30;102171.00;;;;12845284;22;20165;-79
2021/09/02 04:48:57;;;;;;;15.03;9.57;;;;;14.20;102164.00;;;;12868520;22;20165;-79
2021/09/02 04:53:58;;;;;;;19.80;9.73;;;;;14.10;102168.00;;;;12892902;22;20224;-78
2021/09/02 04:58:59;;;;;;;17.30;10.40;;;;;14.00;102168.00;;;;12867490;22;20169;-80
2021/09/02 05:04:01;;;;;;;18.53;10.33;;;;;13.80;102167.00;;;;12862674;22;20178;-79
2021/09/02 05:09:02;;;;;;;15.80;9.73;;;;;13.70;102167.00;;;;12868462;22;20201;-78
2021/09/02 05:14:03;;;;;;;18.43;10.77;;;;;13.60;102165.00;;;;12843948;22;20178;-79
2021/09/02 05:19:04;;;;;;;17.17;10.87;;;;;13.60;102172.00;;;;12866484;22;20200;-79
2021/09/02 05:24:06;;;;;;;26.77;11.33;;;;;13.50;102171.00;;;;12841576;22;20170;-79
2021/09/02 05:29:07;;;;;;;20.87;12.27;;;;;13.50;102171.00;;;;12892345;22;20176;-79
2021/09/02 05:34:08;;;;;;;21.27;13.43;;;;;13.60;102176.00;;;;12868517;22;20181;-79
2021/09/02 05:39:09;;;;;;;18.27;12.10;;;;;13.80;102186.00;;;;12914457;22;20162;-80
2021/09/02 05:44:11;;;;;;;22.13;13.03;;;;;14.00;102192.00;;;;12869363;22;20231;-79
2021/09/02 05:49:13;;;;;;;25.53;14.93;;;;;14.30;102193.00;;;;12845545;22;20498;-79
2021/09/02 05:54:14;;;;;;;20.97;13.23;;;;;14.50;102201.00;;;;12869306;22;20173;-79
2021/09/02 05:59:15;;;;;;;21.97;13.40;;;;;14.60;102202.00;;;;12893531;22;20200;-79
2021/09/02 06:04:16;;;;;;;20.23;13.87;;;;;14.50;102195.00;;;;12893115;22;20169;-79
2021/09/02 06:09:17;;;;;;;22.77;12.97;;;;;14.50;102196.00;;;;12880205;22;20863;-78
2021/09/02 06:14:18;;;;;;;19.33;12.73;;;;;14.60;102205.00;;;;12837335;22;20178;-78
2021/09/02 06:19:20;;;;;;;20.57;12.73;;;;;15.00;102191.00;;;;12868549;22;20197;-78
2021/09/02 06:24:21;;;;;;;20.23;12.77;;;;;15.60;102204.00;;;;12868441;22;20166;-79
2021/09/02 06:29:22;;;;;;;20.00;12.67;;;;;16.20;102208.00;;;;12869430;22;20212;-79
2021/09/02 06:34:23;;;;;;;19.98;11.23;;;;;16.80;102216.00;;;;12870242;22;20173;-80
2021/09/02 06:39:24;;;;;;;22.23;11.68;;;;;17.10;102217.00;;;;12869303;22;20197;-80
2021/09/02 06:44:25;;;;;;;19.52;12.18;;;;;17.30;102217.00;;;;12845820;22;20427;-80
2021/09/02 06:49:27;;;;;;;21.45;12.93;;;;;17.80;102221.00;;;;12869583;22;20169;-80
2021/09/02 06:54:28;;;;;;;20.10;11.80;;;;;18.00;102216.00;;;;12893388;22;20810;-81
2021/09/02 06:59:29;;;;;;;22.00;12.15;;;;;18.10;102218.00;;;;12870156;22;20189;-80
2021/09/02 07:04:31;;;;;;;18.50;11.73;;;;;18.30;102212.00;;;;12870435;22;20170;-81
2021/09/02 07:09:32;;;;;;;22.48;10.70;;;;;18.30;102224.00;;;;12893558;22;20169;-80
2021/09/02 07:14:36;;;;;;;17.70;10.73;;;;;18.40;102226.00;;;;12871425;22;20198;-80
2021/09/02 07:19:37;;;;;;;17.67;10.35;;;;;18.50;102224.00;;;;12846107;22;20197;-81
2021/09/02 07:24:38;;;;;;;18.67;12.52;;;;;18.60;102218.00;;;;12895152;22;20237;-80
2021/09/02 07:29:39;;;;;;;20.42;11.98;;;;;18.70;102211.00;;;;12871454;22;20206;-81
2021/09/02 07:34:41;;;;;;;19.55;12.30;;;;;18.80;102226.00;;;;12896646;22;20208;-80
2021/09/02 07:39:43;;;;;;;20.55;12.07;;;;;18.90;102229.00;;;;12866693;22;20189;-80
2021/09/02 07:44:44;;;;;;;16.25;10.52;;;;;19.10;102217.00;;;;12845952;22;20181;-80
2021/09/02 07:49:45;;;;;;;17.38;10.10;;;;;19.20;102217.00;;;;12869183;22;20880;-79
2021/09/02 07:54:46;;;;;;;17.52;10.00;;;;;19.60;102220.00;;;;12893583;22;20209;-80
2021/09/02 07:59:47;;;;;;;19.75;9.73;;;;;19.90;102228.00;;;;12871154;22;20537;-82
2021/09/02 08:04:50;;;;;;;16.63;9.65;;;;;20.00;102226.00;;;;12895215;22;20169;-80
2021/09/02 08:09:51;;;;;;;16.35;9.10;;;;;19.90;102221.00;;;;12898354;23;20888;-82
2021/09/02 08:14:52;;;;;;;15.80;10.20;;;;;20.00;102219.00;;;;12846479;22;20189;-81
2021/09/02 08:19:53;;;;;;;16.63;10.00;;;;;20.20;102218.00;;;;12894696;22;20205;-80
2021/09/02 08:24:54;;;;;;;19.13;10.23;;;;;20.40;102214.00;;;;12894354;22;20576;-80
2021/09/02 08:29:56;;;;;;;14.38;9.88;;;;;20.50;102213.00;;;;12916614;22;20173;-81
2021/09/02 08:34:57;;;;;;;17.65;10.75;;;;;20.50;102214.00;;;;12870497;22;20663;-80
2021/09/02 08:39:58;;;;;;;18.42;11.98;;;;;20.80;102208.00;;;;12869401;22;20509;-81
2021/09/02 08:45:01;;;;;;;21.95;13.45;;;;;21.10;102212.00;;;;12871212;22;20180;-81
2021/09/02 08:50:04;;;;;;;23.35;15.77;;;;;21.70;102215.00;;;;12871445;22;20208;-80
2021/09/02 08:55:08;;;;;;;23.77;14.57;;;;;22.00;102216.00;;;;12871418;22;20170;-81
2021/09/02 09:00:10;;;;;;;26.17;16.15;;;;;22.80;102216.00;;;;12895509;22;20194;-80
2021/09/02 09:05:17;;;;;;;23.35;15.50;;;;;22.90;102212.00;;;;12939959;22;20170;-81
2021/09/02 09:10:22;;;;;;;23.65;14.50;;;;;23.00;102204.00;;;;12868522;22;20184;-81
2021/09/02 09:15:38;;;;;;;23.38;15.32;;;;;23.40;102203.00;;;;12868357;22;20174;-82
2021/09/02 09:20:40;;;;;;;21.40;14.65;;;;;23.60;102200.00;;;;12870866;22;20213;-81
2021/09/02 09:25:41;;;;;;;26.95;14.75;;;;;23.70;102193.00;;;;12871991;22;20239;-81
2021/09/02 09:30:42;;;;;;;21.40;14.55;;;;;23.60;102193.00;;;;12873407;22;20778;-81
2021/09/02 09:35:54;;;;;;;21.42;14.50;;;;;23.80;102195.00;;;;12893077;22;21063;-82
2021/09/02 09:40:56;;;;;;;21.08;13.27;;;;;24.00;102184.00;;;;12896628;22;20911;-81
2021/09/02 09:45:58;;;;;;;22.52;13.27;;;;;24.20;102179.00;;;;12871967;23;20166;-82
2021/09/02 09:51:14;;;;;;;22.85;13.10;;;;;24.40;102176.00;;;;12872142;22;20177;-82
2021/09/02 09:56:19;;;;;;;18.65;12.77;;;;;24.30;102175.00;;;;12896555;22;20165;-82
2021/09/02 10:01:21;;;;;;;19.10;11.55;;;;;24.00;102168.00;;;;12897115;22;20189;-81
2021/09/02 10:06:25;;;;;;;22.50;13.30;;;;;23.70;102162.00;;;;12846847;22;20600;-82
2021/09/02 10:11:26;;;;;;;18.88;12.23;;;;;24.50;102166.00;;;;12870334;22;20248;-82
2021/09/02 10:16:27;;;;;;;18.30;11.20;;;;;24.80;102161.00;;;;12846259;22;20197;-82
2021/09/02 10:21:29;;;;;;;17.60;11.40;;;;;25.20;102144.00;;;;12870195;22;20201;-82
2021/09/02 10:26:33;;;;;;;18.15;11.65;;;;;25.40;102138.00;;;;12895831;22;20197;-82
2021/09/02 10:31:34;;;;;;;16.60;10.63;;;;;25.70;102139.00;;;;12898492;22;20229;-82
2021/09/02 10:36:40;;;;;;;16.27;10.45;;;;;25.70;102136.00;;;;12873742;22;20217;-83
2021/09/02 10:41:44;;;;;;;14.82;9.82;;;;;25.00;102116.00;;;;12873783;22;20210;-83
2021/09/02 10:46:51;;;;;;;15.75;9.77;;;;;24.50;102130.00;;;;12872596;22;20177;-83
2021/09/02 10:52:04;;;;;;;13.73;9.70;;;;;25.80;102110.00;;;;12872571;22;20173;-83
2021/09/02 10:57:09;;;;;;;13.80;8.55;;;;;26.20;102112.00;;;;12870217;22;20653;-82
2021/09/02 11:02:30;;;;;;;15.52;9.13;;;;;25.40;102105.00;;;;12872038;22;20227;-83
2021/09/02 11:07:39;;;;;;;11.07;8.65;;;;;25.10;102115.00;;;;12879674;22;20182;-83
2021/09/02 11:12:41;;;;;;;14.63;9.52;;;;;25.10;102113.00;;;;12870994;22;20201;-83
2021/09/02 11:17:49;;;;;;;14.00;7.63;;;;;24.40;102111.00;;;;12857147;22;20193;-83
2021/09/02 11:23:13;;;;;;;10.23;7.40;;;;;24.30;102102.00;;;;12922636;22;20190;-83
2021/09/02 11:28:20;;;;;;;12.45;8.02;;;;;25.70;102097.00;;;;12868688;22;20208;-83
2021/09/02 11:33:21;;;;;;;11.95;6.75;;;;;26.30;102090.00;;;;12894056;22;20178;-83
2021/09/02 11:38:23;;;;;;;11.77;7.93;;;;;26.90;102080.00;;;;12868890;22;20173;-83
2021/09/02 11:43:24;;;;;;;14.07;7.95;;;;;26.20;102100.00;;;;12867830;22;20271;-83
2021/09/02 11:48:26;;;;;;;12.75;8.60;;;;;26.40;102091.00;;;;12896257;22;20207;-83
2021/09/02 11:53:30;;;;;;;14.18;8.85;;;;;26.50;102082.00;;;;12868604;22;20178;-83
2021/09/02 11:58:31;;;;;;;14.43;8.43;;;;;26.80;102065.00;;;;12895915;22;20165;-83
2021/09/02 12:03:33;;;;;;;14.23;8.55;;;;;27.20;102064.00;;;;12894888;22;20863;-82
2021/09/02 12:08:35;;;;;;;9.60;8.60;;;;;26.80;102060.00;;;;12898431;22;20201;-83
2021/09/02 12:13:38;;;;;;;16.02;8.82;;;;;26.10;102067.00;;;;12864594;22;20173;-83
2021/09/02 12:18:42;;;;;;;13.52;8.43;;;;;26.90;102057.00;;;;12871488;22;20228;-83
2021/09/02 12:23:53;;;;;;;11.43;8.10;;;;;27.30;102052.00;;;;12867079;22;20197;-83
2021/09/02 12:28:55;;;;;;;12.98;7.60;;;;;27.50;102058.00;;;;12894511;22;20200;-83
2021/09/02 12:34:17;;;;;;;9.65;7.32;;;;;27.50;102068.00;;;;12868030;22;20256;-83
2021/09/02 12:39:26;;;;;;;11.98;7.82;;;;;27.10;102059.00;;;;12883176;22;20174;-83
2021/09/02 12:44:38;;;;;;;12.00;7.63;;;;;27.30;102045.00;;;;12869753;22;20170;-83
2021/09/02 12:49:42;;;;;;;10.90;7.50;;;;;26.70;102050.00;;;;12871575;22;20170;-83
2021/09/02 12:55:05;;;;;;;10.57;8.07;;;;;26.80;102044.00;;;;12864183;22;20178;-82
2021/09/02 13:00:12;;;;;;;12.00;7.60;;;;;27.50;102036.00;;;;12892300;22;20185;-83
2021/09/02 13:05:18;;;;;;;16.23;9.27;;;;;26.50;102047.00;;;;12895174;22;20184;-83
2021/09/02 13:10:25;;;;;;;13.20;8.80;;;;;26.10;102046.00;;;;12892690;22;20209;-83
2021/09/02 13:15:27;;;;;;;13.20;9.15;;;;;27.40;102026.00;;;;12865643;22;20177;-83
2021/09/02 13:20:28;;;;;;;13.50;9.45;;;;;26.70;102026.00;;;;12935548;22;20190;-82
2021/09/02 13:25:30;;;;;;;12.65;8.93;;;;;26.30;102019.00;;;;12934940;22;20480;-83
2021/09/02 13:30:31;;;;;;;13.25;9.77;;;;;26.60;102024.00;;;;12842421;22;20173;-84
2021/09/02 13:35:32;;;;;;;14.55;9.38;;;;;26.80;102013.00;;;;12867508;22;20700;-83
2021/09/02 13:40:33;;;;;;;16.58;8.88;;;;;27.40;102003.00;;;;12863418;22;20190;-83
2021/09/02 13:45:34;;;;;;;14.18;9.10;;;;;27.10;102007.00;;;;12862704;22;20173;-83
2021/09/02 13:50:35;;;;;;;16.90;9.48;;;;;26.80;101998.00;;;;12841527;22;20281;-83
2021/09/02 13:55:37;;;;;;;16.95;9.15;;;;;26.80;101986.00;;;;12892008;22;20173;-82
2021/09/02 14:00:42;;;;;;;12.85;9.25;;;;;27.20;101977.00;;;;12867552;22;20704;-83
2021/09/02 14:05:43;;;;;;;8.90;8.05;;;;;27.30;101978.00;;;;12865625;22;20170;-83
2021/09/02 14:10:44;;;;;;;13.20;9.30;;;;;27.60;101978.00;;;;12867343;22;20712;-83
2021/09/02 14:15:46;;;;;;;10.00;7.78;;;;;27.00;101980.00;;;;12843636;22;20695;-83
2021/09/02 14:20:47;;;;;;;11.38;8.43;;;;;28.30;101972.00;;;;12843686;22;20232;-82
2021/09/02 14:25:48;;;;;;;8.93;8.00;;;;;30.70;101958.00;;;;12841894;22;20500;-82
2021/09/02 14:30:50;;;;;;;12.52;8.18;;;;;31.10;101957.00;;;;12866953;22;20173;-83
2021/09/02 14:35:51;;;;;;;9.82;6.93;;;;;30.40;101969.00;;;;12865110;22;20177;-83
2021/09/02 14:40:53;;;;;;;13.45;8.45;;;;;30.30;101955.00;;;;12844344;22;20197;-83
2021/09/02 14:45:54;;;;;;;13.45;7.78;;;;;30.20;101958.00;;;;12869678;22;20173;-83
2021/09/02 14:50:55;;;;;;;12.43;7.53;;;;;30.60;101946.00;;;;12892932;22;20181;-81
2021/09/02 14:55:56;;;;;;;9.10;7.10;;;;;30.30;101951.00;;;;12844643;22;20208;-83
2021/09/02 15:00:58;;;;;;;9.05;6.63;;;;;27.50;101949.00;;;;12868990;22;20200;-84
2021/09/02 15:05:59;;;;;;;12.30;8.23;;;;;27.30;101935.00;;;;12892325;22;20184;-82
2021/09/02 15:11:01;;;;;;;7.82;7.00;;;;;27.60;101929.00;;;;12867876;22;20188;-83
2021/09/02 15:16:03;;;;;;;12.73;8.07;;;;;26.70;101924.00;;;;12865260;22;20189;-83
2021/09/02 15:21:04;;;;;;;11.15;8.00;;;;;26.30;101912.00;;;;12867986;22;20197;-81
2021/09/02 15:26:05;;;;;;;10.13;8.10;;;;;25.60;101923.00;;;;12866679;22;20169;-82
2021/09/02 15:31:08;;;;;;;9.60;7.65;;;;;24.70;101913.00;;;;12869044;22;20173;-82
2021/09/02 15:36:09;;;;;;;11.18;8.38;;;;;24.30;101914.00;;;;12842646;22;20177;-81
2021/09/02 15:41:10;;;;;;;11.82;7.30;;;;;23.90;101897.00;;;;12914215;22;20196;-82
2021/09/02 15:46:12;;;;;;;12.05;9.05;;;;;23.60;101899.00;;;;12894374;22;20174;-81
2021/09/02 15:51:14;;;;;;;11.25;9.10;;;;;23.30;101897.00;;;;12869722;22;20821;-82
2021/09/02 15:56:15;;;;;;;12.65;9.50;;;;;23.10;101884.00;;;;12869206;22;20260;-81
2021/09/02 16:01:17;;;;;;;12.98;9.38;;;;;23.10;101879.00;;;;12868422;22;20818;-81
2021/09/02 16:06:19;;;;;;;11.82;9.88;;;;;23.00;101877.00;;;;12869626;22;20174;-82
2021/09/02 16:11:21;;;;;;;15.77;9.82;;;;;22.90;101870.00;;;;12869184;22;20172;-82
2021/09/02 16:16:23;;;;;;;14.05;8.88;;;;;22.80;101864.00;;;;12868908;22;20197;-83
2021/09/02 16:21:24;;;;;;;11.38;9.27;;;;;22.70;101872.00;;;;12843168;22;20215;-82
2021/09/02 16:26:25;;;;;;;11.65;9.60;;;;;22.70;101859.00;;;;12893514;22;20173;-81
2021/09/02 16:31:27;;;;;;;11.40;10.00;;;;;22.60;101854.00;;;;12922869;22;20220;-80
2021/09/02 16:36:28;;;;;;;12.80;9.65;;;;;22.50;101836.00;;;;12871419;22;20169;-80
2021/09/02 16:41:30;;;;;;;13.57;10.02;;;;;22.40;101837.00;;;;12845056;22;20189;-82
2021/09/02 16:46:32;;;;;;;14.57;9.40;;;;;22.30;101842.00;;;;12871273;22;20205;-81
2021/09/02 16:51:34;;;;;;;13.82;10.32;;;;;22.20;101830.00;;;;12853172;22;20185;-82
2021/09/02 16:56:35;;;;;;;15.90;10.98;;;;;22.00;101828.00;;;;12920319;22;20192;-82
2021/09/02 17:01:36;;;;;;;16.67;10.10;;;;;21.90;101831.00;;;;12894343;22;20193;-82
2021/09/02 17:06:38;;;;;;;12.52;10.48;;;;;21.80;101826.00;;;;12866162;22;20180;-82
2021/09/02 17:11:39;;;;;;;13.48;10.65;;;;;21.70;101831.00;;;;12894336;22;20173;-81
2021/09/02 17:16:41;;;;;;;17.60;10.82;;;;;21.60;101831.00;;;;12889362;22;20181;-82
2021/09/02 17:21:43;;;;;;;17.13;10.07;;;;;21.50;101823.00;;;;12841788;22;20499;-82
2021/09/02 17:26:48;;;;;;;14.68;9.98;;;;;21.30;101822.00;;;;12843847;22;20173;-82
2021/09/02 17:31:50;;;;;;;13.13;9.90;;;;;21.20;101818.00;;;;12938263;22;20248;-82
2021/09/02 17:36:51;;;;;;;16.77;9.88;;;;;21.00;101821.00;;;;12893120;23;20180;-82
2021/09/02 17:41:52;;;;;;;14.80;9.98;;;;;20.90;101822.00;;;;12864980;22;20517;-79
2021/09/02 17:46:54;;;;;;;14.85;10.85;;;;;20.70;101817.00;;;;12890693;22;20240;-79
2021/09/02 17:51:56;;;;;;;15.52;12.05;;;;;20.50;101814.00;;;;12889995;22;20174;-80
2021/09/02 17:56:57;;;;;;;16.08;11.82;;;;;20.30;101804.00;;;;12842569;23;20174;-79
2021/09/02 18:01:58;;;;;;;15.88;12.52;;;;;20.10;101809.00;;;;12911040;22;20197;-80
2021/09/02 18:07:01;;;;;;;16.42;11.75;;;;;19.90;101815.00;;;;12865131;22;20170;-79
2021/09/02 18:12:02;;;;;;;15.63;11.10;;;;;19.70;101822.00;;;;12842102;22;20811;-79
2021/09/02 18:17:05;;;;;;;13.80;11.82;;;;;19.50;101815.00;;;;12890217;22;20778;-81
2021/09/02 18:22:06;;;;;;;17.33;11.60;;;;;19.30;101822.00;;;;12889508;23;20723;-82
2021/09/02 18:27:07;;;;;;;13.98;11.77;;;;;19.10;101813.00;;;;12863555;22;20166;-81
2021/09/02 18:32:09;;;;;;;14.98;12.98;;;;;18.90;101815.00;;;;12864518;22;20605;-80
2021/09/02 18:37:10;;;;;;;16.60;13.13;;;;;18.70;101825.00;;;;12888539;22;20170;-81
2021/09/02 18:42:16;;;;;;;17.77;12.93;;;;;18.60;101822.00;;;;12864890;22;20197;-82
2021/09/02 18:47:20;;;;;;;18.52;14.45;;;;;18.40;101815.00;;;;12839076;22;20199;-81
2021/09/02 18:52:23;;;;;;;17.65;14.35;;;;;18.30;101824.00;;;;12887656;22;20176;-82
2021/09/02 18:57:26;;;;;;;18.30;13.38;;;;;18.20;101820.00;;;;12861932;22;20173;-82
2021/09/02 19:02:28;;;;;;;18.70;14.95;;;;;18.10;101829.00;;;;12888767;22;20198;-83
2021/09/02 19:07:31;;;;;;;17.08;14.60;;;;;17.90;101821.00;;;;12841186;22;20173;-82
2021/09/02 19:12:34;;;;;;;17.50;14.18;;;;;17.80;101827.00;;;;12865352;22;20178;-83
2021/09/02 19:17:35;;;;;;;17.15;15.07;;;;;17.70;101831.00;;;;12864942;22;20252;-82
2021/09/02 19:22:41;;;;;;;16.98;15.10;;;;;17.60;101831.00;;;;12889717;22;20189;-82
2021/09/02 19:27:46;;;;;;;20.00;16.48;;;;;17.50;101827.00;;;;12863844;22;20170;-82
2021/09/02 19:32:53;;;;;;;19.05;17.13;;;;;17.50;101827.00;;;;12865700;22;20177;-82
2021/09/02 19:37:56;;;;;;;21.40;16.65;;;;;17.40;101833.00;;;;12865714;22;20177;-83
2021/09/02 19:42:58;;;;;;;20.50;16.65;;;;;17.30;101826.00;;;;12866442;22;20193;-82
2021/09/02 19:48:00;;;;;;;20.55;17.88;;;;;17.20;101827.00;;;;12889713;22;20169;-82
2021/09/02 19:53:20;;;;;;;19.48;17.25;;;;;17.20;101825.00;;;;12871048;22;20700;-83
2021/09/02 19:58:29;;;;;;;22.30;18.27;;;;;17.10;101826.00;;;;12864521;22;20556;-82
2021/09/02 20:03:46;;;;;;;23.50;18.58;;;;;17.00;101831.00;;;;12861034;22;20201;-82
2021/09/02 20:08:52;;;;;;;24.33;19.48;;;;;16.90;101834.00;;;;12858515;22;20669;-82
2021/09/02 20:13:55;;;;;;;24.05;20.02;;;;;16.80;101838.00;;;;12925549;22;20173;-82
2021/09/02 20:18:56;;;;;;;22.35;19.15;;;;;16.70;101834.00;;;;12854393;22;20189;-82
2021/09/02 20:23:58;;;;;;;22.52;18.75;;;;;16.50;101842.00;;;;12857573;22;20255;-82
2021/09/02 20:28:59;;;;;;;23.27;20.77;;;;;16.40;101829.00;;;;12856282;22;20174;-82
2021/09/02 20:34:01;;;;;;;27.20;21.48;;;;;16.30;101833.00;;;;12833311;22;20187;-82
2021/09/02 20:39:11;;;;;;;27.03;21.67;;;;;16.10;101841.00;;;;12879979;22;20177;-82
2021/09/02 20:44:12;;;;;;;26.10;22.43;;;;;16.00;101846.00;;;;12855113;22;20255;-82
2021/09/02 20:49:19;;;;;;;23.87;21.20;;;;;15.90;101845.00;;;;12855536;22;20173;-82
2021/09/02 20:54:23;;;;;;;24.97;22.43;;;;;15.70;101845.00;;;;12882661;22;20544;-82
2021/09/02 20:59:25;;;;;;;28.87;23.83;;;;;15.60;101844.00;;;;12856462;22;20261;-81
2021/09/02 21:04:32;;;;;;;29.33;24.60;;;;;15.50;101850.00;;;;12831496;22;20197;-82
2021/09/02 21:09:34;;;;;;;28.27;24.00;;;;;15.40;101849.00;;;;12865879;22;20178;-82
2021/09/02 21:14:37;;;;;;;30.93;25.50;;;;;15.30;101843.00;;;;12871242;22;20177;-83
2021/09/02 21:19:38;;;;;;;30.33;26.90;;;;;15.30;101847.00;;;;12877236;22;20197;-82
2021/09/02 21:24:50;;;;;;;32.17;26.87;;;;;15.20;101850.00;;;;12901663;22;20609;-82
2021/09/02 21:29:56;;;;;;;31.03;25.77;;;;;15.10;101847.00;;;;12901325;22;20188;-83
2021/09/02 21:35:03;;;;;;;31.33;27.93;;;;;15.00;101841.00;;;;12875916;22;20177;-83
2021/09/02 21:40:20;;;;;;;31.43;27.40;;;;;15.00;101840.00;;;;12927143;22;20478;-82
2021/09/02 21:45:22;;;;;;;32.87;28.23;;;;;14.90;101833.00;;;;12852425;22;20172;-82
2021/09/02 21:50:23;;;;;;;36.30;30.80;;;;;14.80;101843.00;;;;12901808;22;20510;-83
2021/09/02 21:55:25;;;;;;;34.77;28.63;;;;;14.70;101837.00;;;;12877704;22;20174;-83
2021/09/02 22:00:26;;;;;;;38.23;29.30;;;;;14.60;101830.00;;;;12902050;22;20253;-82
2021/09/02 22:05:28;;;;;;;36.93;29.60;;;;;14.50;101829.00;;;;12851215;22;20176;-83
2021/09/02 22:10:30;;;;;;;41.83;31.07;;;;;14.40;101826.00;;;;12876462;22;20256;-83
2021/09/02 22:15:32;;;;;;;36.83;32.13;;;;;14.40;101824.00;;;;12852812;22;20236;-83
2021/09/02 22:20:42;;;;;;;41.63;34.77;;;;;14.30;101827.00;;;;12876663;22;20190;-83
2021/09/02 22:25:46;;;;;;;40.43;31.97;;;;;14.30;101818.00;;;;12876423;22;20166;-83
2021/09/02 22:30:50;;;;;;;37.57;32.33;;;;;14.20;101823.00;;;;12875879;22;20182;-82
2021/09/02 22:35:52;;;;;;;35.73;31.83;;;;;14.10;101824.00;;;;12899974;22;20169;-82
2021/09/02 22:40:54;;;;;;;38.77;30.90;;;;;14.10;101821.00;;;;12852449;22;20201;-82
2021/09/02 22:45:57;;;;;;;36.67;32.07;;;;;14.00;101822.00;;;;12852123;22;20177;-83
2021/09/02 22:51:00;;;;;;;38.30;31.43;;;;;13.90;101814.00;;;;12947594;22;20161;-83
2021/09/02 22:56:02;;;;;;;41.77;32.33;;;;;13.90;101810.00;;;;12877337;22;20184;-82
2021/09/02 23:01:04;;;;;;;47.63;34.67;;;;;13.90;101801.00;;;;12876629;22;20917;-82
2021/09/02 23:06:08;;;;;;;42.30;34.00;;;;;13.80;101798.00;;;;12876093;22;20169;-83
2021/09/02 23:11:27;;;;;;;41.67;33.27;;;;;13.70;101802.00;;;;12876802;22;20676;-83
2021/09/02 23:16:49;;;;;;;43.07;33.60;;;;;13.60;101794.00;;;;12877140;22;20248;-83
2021/09/02 23:21:52;;;;;;;41.30;34.33;;;;;13.50;101791.00;;;;12851552;22;20638;-83
2021/09/02 23:26:58;;;;;;;44.10;35.47;;;;;13.40;101793.00;;;;12901068;22;20166;-82
2021/09/02 23:31:59;;;;;;;48.60;34.93;;;;;13.40;101790.00;;;;12876354;22;20181;-83
2021/09/02 23:37:03;;;;;;;46.00;37.43;;;;;13.40;101788.00;;;;12900341;22;20170;-83
2021/09/02 23:42:05;;;;;;;45.93;35.07;;;;;13.40;101781.00;;;;12875913;22;20240;-83
2021/09/02 23:47:06;;;;;;;43.43;34.80;;;;;13.30;101783.00;;;;12875269;22;20170;-83
2021/09/02 23:52:08;;;;;;;47.63;37.33;;;;;13.30;101782.00;;;;12875100;22;20255;-83
2021/09/02 23:57:09;;;;;;;48.90;36.77;;;;;13.30;101775.00;;;;12849645;22;20184;-83
